Flugplatz Pattonville

Für EDTQ sind keine METAR/TAF Berichte vorhanden.
Es werden die Flugwettermeldungen vom Flugplatz Stuttgart in 19 km Entfernung angezeigt.

Bericht für EDDS

vom 28.10. um 08:50 UTC

Wind 6 kt aus 210°

Sichtweite 10 km oder mehr

schwacher Regenschauer

gering bewölkt in 1000 ft

aufgelockert bewölkt in 4800 ft

Temperatur 12.0°C

Taupunkt 10.0°C

Luftfeuchtigkeit 88%

Luftdruck 1014 hPa

keine wesentliche Wetteränderung innerhalb den nächsten 2 Stunden zu erwarten

EDDS 280850Z 21006KT 120V280 9999 -SHRA FEW010 SCT048TCU 12/10 Q1014 NOSIG

Prognose für EDDS

vom 28.10. um 05:00 UTC

Zwischen 06:00 UTC und 08:00 UTC

Wind 4 kt aus 200°

Sichtweite 10 km oder mehr

aufgelockert bewölkt in 2500 ft


Zwischen 06:00 UTC und 08:00 UTC zeitweise mit einer Wahrscheinlichkeit von 30%

Regenschauer

aufgebrochene Bewölkung in 2000 ft


Zwischen 08:00 und 11:00 UTC übergehend zu

Wind 9 kt aus 220°

Sichtweite 10 km oder mehr

aufgelockert bewölkt in 2500 ft


Zwischen 16:00 und 18:00 UTC übergehend zu

Wind 4 kt aus 200°

Sichtweite 10 km oder mehr

aufgelockert bewölkt in 2500 ft


Am 29.10. zwischen 00:00 UTC und 06:00 UTC zeitweise mit einer Wahrscheinlichkeit von 30%

Wind 10 kt aus 230°

Regenschauer

aufgebrochene Bewölkung in 2000 ft

TAF EDDS 280500Z 2806/2906 20004KT 9999 SCT025 PROB30 TEMPO 2806/2808 SHRA BKN020CB BECMG 2808/2811 22009KT BECMG 2816/2818 20004KT PROB30 TEMPO 2900/2906 23010KT SHRA BKN020CB
Impressum